createdAt,value
2023-04-02T00:01:22.837Z,89.80
2023-04-02T00:03:54.115Z,89.80
2023-04-02T00:06:33.591Z,89.70
2023-04-02T00:09:21.381Z,89.30
2023-04-02T00:11:54.767Z,89.50
2023-04-02T00:14:29.082Z,89.70
2023-04-02T00:16:57.833Z,89.60
2023-04-02T00:19:30.606Z,89.80
2023-04-02T00:21:58.944Z,89.80
2023-04-02T00:24:25.985Z,89.50
2023-04-02T00:26:54.203Z,89.50
2023-04-02T00:29:21.377Z,89.40
2023-04-02T00:31:53.808Z,89.50
2023-04-02T00:34:25.960Z,89.10
2023-04-02T00:36:53.574Z,88.80
2023-04-02T00:39:28.525Z,88.30
2023-04-02T00:42:06.656Z,88.30
2023-04-02T00:44:38.714Z,88.30
2023-04-02T00:47:20.202Z,88.40
2023-04-02T00:49:51.930Z,88.60
2023-04-02T00:52:23.337Z,88.60
2023-04-02T00:55:12.117Z,88.90
2023-04-02T00:57:42.821Z,88.90
2023-04-02T01:00:23.853Z,88.80
2023-04-02T01:03:13.137Z,88.70
2023-04-02T01:05:42.613Z,88.70
2023-04-02T01:08:31.393Z,88.70
2023-04-02T01:11:04.117Z,88.60
2023-04-02T01:13:33.762Z,88.50
2023-04-02T01:16:11.643Z,88.30
2023-04-02T01:19:07.634Z,88.50
2023-04-02T01:21:42.290Z,88.70
2023-04-02T01:24:13.766Z,88.20
2023-04-02T01:27:01.136Z,88.30
2023-04-02T01:29:46.679Z,88.20
2023-04-02T01:32:16.762Z,88.20
2023-04-02T01:34:47.197Z,88.70
2023-04-02T01:37:32.458Z,88.90
2023-04-02T01:40:30.980Z,88.50
2023-04-02T01:43:08.939Z,88.40
2023-04-02T01:45:36.794Z,88.10
2023-04-02T01:48:27.388Z,88.30
2023-04-02T01:50:56.954Z,88.10
2023-04-02T01:53:27.096Z,87.90
2023-04-02T01:55:57.194Z,88.00
2023-04-02T01:58:29.268Z,87.70
2023-04-02T02:01:04.070Z,87.80
2023-04-02T02:03:31.207Z,87.90
2023-04-02T02:05:59.259Z,87.70
2023-04-02T02:08:47.009Z,88.20
2023-04-02T02:11:21.563Z,88.00
2023-04-02T02:13:55.428Z,88.10
2023-04-02T02:16:23.273Z,88.10
2023-04-02T02:18:53.725Z,87.90
2023-04-02T02:21:39.031Z,87.90
2023-04-02T02:24:17.115Z,87.50
2023-04-02T02:26:46.863Z,87.70
2023-04-02T02:29:18.897Z,87.80
2023-04-02T02:31:52.935Z,87.30
2023-04-02T02:34:25.097Z,87.40
2023-04-02T02:37:17.955Z,87.60
2023-04-02T02:39:46.042Z,88.10
2023-04-02T02:42:38.809Z,88.10
2023-04-02T02:45:12.523Z,88.00
2023-04-02T02:47:42.145Z,87.80
2023-04-02T02:50:22.536Z,87.50
2023-04-02T02:52:58.953Z,87.60
2023-04-02T02:55:37.407Z,87.50
2023-04-02T02:58:23.992Z,87.50
2023-04-02T03:00:50.965Z,87.80
2023-04-02T03:03:27.609Z,87.60
2023-04-02T03:05:58.162Z,87.60
2023-04-02T03:08:52.304Z,87.70
2023-04-02T03:11:44.072Z,87.70
2023-04-02T03:14:21.890Z,87.80
2023-04-02T03:16:53.947Z,87.30
2023-04-02T03:19:47.880Z,87.60
2023-04-02T03:22:32.222Z,87.40
2023-04-02T03:25:28.646Z,87.30
2023-04-02T03:28:02.450Z,87.40
2023-04-02T03:30:42.105Z,87.60
2023-04-02T03:33:20.478Z,87.30
2023-04-02T03:36:01.518Z,87.30
2023-04-02T03:38:41.137Z,87.30
2023-04-02T03:41:31.848Z,87.10
2023-04-02T03:44:04.336Z,87.20
2023-04-02T03:46:31.055Z,86.60
2023-04-02T03:49:04.735Z,86.70
2023-04-02T03:51:38.743Z,86.80
2023-04-02T03:54:08.531Z,86.50
2023-04-02T03:56:40.419Z,86.40
2023-04-02T03:59:16.253Z,86.50
2023-04-02T04:01:50.897Z,86.80
2023-04-02T04:04:19.737Z,86.30
2023-04-02T04:06:52.461Z,86.10
2023-04-02T04:09:27.306Z,86.40
2023-04-02T04:12:08.202Z,86.70
2023-04-02T04:14:44.109Z,86.60
2023-04-02T04:17:30.255Z,86.10
2023-04-02T04:20:14.919Z,85.90
2023-04-02T04:22:41.821Z,86.10
2023-04-02T04:25:22.422Z,85.90
2023-04-02T04:28:28.051Z,85.40
2023-04-02T04:31:22.824Z,85.60
2023-04-02T04:33:55.690Z,85.20
2023-04-02T04:36:34.342Z,85.30
2023-04-02T04:39:08.451Z,85.60
2023-04-02T04:41:40.869Z,85.70
2023-04-02T04:44:25.046Z,85.50
2023-04-02T04:47:07.866Z,85.90
2023-04-02T04:49:44.190Z,85.40
2023-04-02T04:52:16.800Z,85.70
2023-04-02T04:54:45.667Z,85.60
2023-04-02T04:57:32.557Z,85.90
2023-04-02T05:00:13.322Z,85.60
2023-04-02T05:02:54.452Z,85.50
2023-04-02T05:05:29.941Z,85.70
2023-04-02T05:08:01.133Z,85.60
2023-04-02T05:10:33.814Z,85.70
2023-04-02T05:13:34.382Z,85.90
2023-04-02T05:16:22.747Z,86.00
2023-04-02T05:18:59.003Z,85.90
2023-04-02T05:21:35.449Z,85.90
2023-04-02T05:24:23.233Z,86.10
2023-04-02T05:26:51.956Z,85.90
2023-04-02T05:29:25.839Z,85.40
2023-04-02T05:32:04.259Z,85.40
2023-04-02T05:34:35.296Z,85.20
2023-04-02T05:37:02.865Z,85.20
2023-04-02T05:39:32.510Z,85.40
2023-04-02T05:42:10.540Z,85.60
2023-04-02T05:44:45.680Z,85.20
2023-04-02T05:47:22.078Z,85.00
2023-04-02T05:50:11.173Z,85.40
2023-04-02T05:52:43.453Z,85.40
2023-04-02T05:55:13.375Z,85.70
2023-04-02T05:58:07.057Z,85.70
2023-04-02T06:00:39.616Z,85.90
2023-04-02T06:03:34.894Z,85.60
2023-04-02T06:06:06.949Z,85.80
2023-04-02T06:09:02.125Z,85.80
2023-04-02T06:11:32.938Z,85.40
2023-04-02T06:14:00.491Z,85.70
2023-04-02T06:16:33.445Z,85.70
2023-04-02T06:19:00.390Z,85.70
2023-04-02T06:21:27.386Z,85.70
2023-04-02T06:24:03.757Z,85.30
2023-04-02T06:26:56.289Z,85.50
2023-04-02T06:29:26.358Z,85.40
2023-04-02T06:32:04.195Z,84.70
2023-04-02T06:34:32.561Z,85.10
2023-04-02T06:37:11.961Z,85.00
2023-04-02T06:39:38.791Z,85.20
2023-04-02T06:42:27.963Z,84.80
2023-04-02T06:44:55.204Z,85.30
2023-04-02T06:47:25.073Z,84.90
2023-04-02T06:50:00.365Z,85.20
2023-04-02T06:52:34.658Z,85.30
2023-04-02T06:55:20.516Z,85.30
2023-04-02T06:57:48.438Z,85.20
2023-04-02T07:00:46.425Z,84.60
2023-04-02T07:03:26.259Z,84.60
2023-04-02T07:05:53.483Z,85.00
2023-04-02T07:08:20.804Z,84.90
2023-04-02T07:10:48.105Z,85.10
2023-04-02T07:13:24.811Z,84.70
2023-04-02T07:15:53.883Z,84.90
2023-04-02T07:18:28.718Z,85.10
2023-04-02T07:20:56.778Z,85.20
2023-04-02T07:23:24.032Z,84.80
2023-04-02T07:25:53.110Z,85.00
2023-04-02T07:28:22.391Z,84.70
2023-04-02T07:30:50.588Z,84.80
2023-04-02T07:33:20.530Z,84.90
2023-04-02T07:35:48.397Z,84.20
2023-04-02T07:38:15.466Z,84.50
2023-04-02T07:40:42.365Z,84.30
2023-04-02T07:43:09.763Z,84.30
2023-04-02T07:45:37.164Z,84.20
2023-04-02T07:48:09.263Z,84.30
2023-04-02T07:50:36.759Z,83.90
2023-04-02T07:53:04.197Z,83.50
2023-04-02T07:55:31.294Z,84.10
2023-04-02T07:57:59.706Z,84.60
2023-04-02T08:00:28.685Z,84.60
2023-04-02T08:02:56.252Z,84.90
2023-04-02T08:05:23.397Z,84.40
2023-04-02T08:07:57.105Z,84.30
2023-04-02T08:10:24.769Z,84.30
2023-04-02T08:12:51.739Z,84.30
2023-04-02T08:15:18.612Z,84.00
2023-04-02T08:17:46.380Z,84.10
2023-04-02T08:20:18.478Z,84.10
2023-04-02T08:22:46.505Z,83.90
2023-04-02T08:25:14.140Z,83.80
2023-04-02T08:27:41.143Z,84.00
2023-04-02T08:30:09.608Z,83.60
2023-04-02T08:32:36.599Z,84.00
2023-04-02T08:35:03.637Z,83.50
2023-04-02T08:37:30.490Z,83.70
2023-04-02T08:39:57.278Z,83.60
2023-04-02T08:42:41.440Z,83.70
2023-04-02T08:45:25.018Z,83.60
2023-04-02T08:48:05.517Z,83.40
2023-04-02T08:50:41.163Z,83.70
2023-04-02T08:53:31.153Z,83.20
2023-04-02T08:56:17.863Z,82.80
2023-04-02T08:58:53.649Z,83.20
2023-04-02T09:01:26.478Z,83.00
2023-04-02T09:03:57.987Z,81.80
2023-04-02T09:06:26.169Z,80.70
2023-04-02T09:08:54.544Z,81.60
2023-04-02T09:11:49.269Z,81.80
2023-04-02T09:14:32.311Z,81.80
2023-04-02T09:17:03.824Z,81.80
2023-04-02T09:19:38.568Z,81.70
2023-04-02T09:22:32.390Z,81.20
2023-04-02T09:25:02.011Z,81.50
2023-04-02T09:27:35.595Z,81.30
2023-04-02T09:30:14.457Z,81.80
2023-04-02T09:33:09.299Z,82.10
2023-04-02T09:35:51.572Z,81.30
2023-04-02T09:38:22.409Z,80.80
2023-04-02T09:40:55.083Z,81.30
2023-04-02T09:43:23.140Z,81.60
2023-04-02T09:45:59.923Z,81.90
2023-04-02T09:48:41.259Z,81.70
2023-04-02T09:51:20.348Z,80.00
2023-04-02T09:54:05.990Z,80.90
2023-04-02T09:56:37.591Z,79.00
2023-04-02T09:59:17.207Z,77.60
2023-04-02T10:01:45.120Z,78.50
2023-04-02T10:04:46.052Z,78.10
2023-04-02T10:07:32.598Z,79.60
2023-04-02T10:10:21.016Z,79.70
2023-04-02T10:13:26.395Z,79.70
2023-04-02T10:16:00.085Z,78.30
2023-04-02T10:18:33.276Z,78.10
2023-04-02T10:21:02.908Z,80.90
2023-04-02T10:23:31.570Z,80.70
2023-04-02T10:26:16.667Z,80.60
2023-04-02T10:28:49.328Z,78.10
2023-04-02T10:31:20.234Z,76.50
2023-04-02T10:33:51.139Z,79.00
2023-04-02T10:36:36.276Z,78.20
2023-04-02T10:39:21.239Z,77.70
2023-04-02T10:42:04.192Z,78.80
2023-04-02T10:44:52.951Z,77.60
2023-04-02T10:47:38.557Z,77.10
2023-04-02T10:50:08.626Z,76.30
2023-04-02T10:52:58.115Z,76.30
2023-04-02T10:55:29.497Z,77.50
2023-04-02T10:58:03.104Z,78.40
2023-04-02T11:00:35.014Z,78.30
2023-04-02T11:03:13.283Z,76.90
2023-04-02T11:05:54.748Z,79.20
2023-04-02T11:08:40.415Z,77.30
2023-04-02T11:11:23.847Z,78.40
2023-04-02T11:14:15.522Z,78.20
2023-04-02T11:16:44.513Z,76.60
2023-04-02T11:19:17.717Z,76.50
2023-04-02T11:21:58.652Z,76.40
2023-04-02T11:24:37.105Z,74.60
2023-04-02T11:27:09.990Z,73.80
2023-04-02T11:29:40.440Z,74.50
2023-04-02T11:32:22.259Z,70.40
2023-04-02T11:34:56.749Z,71.00
2023-04-02T11:37:34.569Z,71.10
2023-04-02T11:40:16.522Z,72.60
2023-04-02T11:42:51.338Z,73.20
2023-04-02T11:45:23.992Z,71.10
2023-04-02T11:48:00.269Z,72.10
2023-04-02T11:50:36.499Z,71.60
2023-04-02T11:53:12.709Z,72.30
2023-04-02T11:55:43.232Z,69.60
2023-04-02T11:58:34.898Z,70.00
2023-04-02T12:01:19.814Z,70.10
2023-04-02T12:04:01.856Z,69.80
2023-04-02T12:06:34.550Z,70.40
2023-04-02T12:09:27.643Z,72.60
2023-04-02T12:11:58.292Z,75.80
2023-04-02T12:14:36.412Z,74.40
2023-04-02T12:17:15.810Z,76.50
2023-04-02T12:19:48.800Z,75.30
2023-04-02T12:22:24.668Z,72.40
2023-04-02T12:24:54.576Z,71.00
2023-04-02T12:27:27.593Z,73.90
2023-04-02T12:29:57.233Z,70.40
2023-04-02T12:32:27.697Z,67.90
2023-04-02T12:34:57.864Z,68.60
2023-04-02T12:37:31.509Z,69.10
2023-04-02T12:40:17.580Z,68.70
2023-04-02T12:42:44.379Z,68.10
2023-04-02T12:45:30.785Z,67.20
2023-04-02T12:48:00.663Z,69.30
2023-04-02T12:50:27.595Z,69.40
2023-04-02T12:52:55.729Z,70.00
2023-04-02T12:55:25.562Z,69.10
2023-04-02T12:57:57.779Z,68.90
2023-04-02T13:00:27.478Z,68.90
2023-04-02T13:03:06.835Z,68.10
2023-04-02T13:05:42.594Z,67.60
2023-04-02T13:08:30.710Z,67.30
2023-04-02T13:11:03.689Z,68.40
2023-04-02T13:13:36.513Z,70.20
2023-04-02T13:16:15.370Z,68.90
2023-04-02T13:18:44.063Z,68.10
2023-04-02T13:21:17.205Z,67.00
2023-04-02T13:23:44.245Z,66.80
2023-04-02T13:26:28.516Z,66.30
2023-04-02T13:29:25.960Z,66.30
2023-04-02T13:31:55.853Z,66.60
2023-04-02T13:34:23.883Z,65.70
2023-04-02T13:36:50.748Z,65.50
2023-04-02T13:39:17.721Z,65.20
2023-04-02T13:41:47.349Z,67.10
2023-04-02T13:44:30.043Z,66.50
2023-04-02T13:46:58.324Z,66.30
2023-04-02T13:49:26.267Z,69.00
2023-04-02T13:51:57.944Z,68.10
2023-04-02T13:54:27.561Z,66.60
2023-04-02T13:56:56.580Z,67.20
2023-04-02T13:59:24.662Z,68.30
2023-04-02T14:01:56.366Z,65.70
2023-04-02T14:04:30.001Z,66.40
2023-04-02T14:07:45.133Z,66.90
2023-04-02T14:10:48.036Z,67.10
2023-04-02T14:13:33.260Z,66.50
2023-04-02T14:16:23.625Z,66.50
2023-04-02T14:19:14.823Z,65.80
2023-04-02T14:22:05.918Z,64.70
2023-04-02T14:24:44.710Z,63.70
2023-04-02T14:27:26.139Z,64.60
2023-04-02T14:30:05.784Z,65.50
2023-04-02T14:32:59.338Z,65.60
2023-04-02T14:35:36.279Z,64.90
2023-04-02T14:38:15.545Z,65.20
2023-04-02T14:40:50.296Z,65.10
2023-04-02T14:43:26.472Z,66.10
2023-04-02T14:45:53.409Z,66.20
2023-04-02T14:48:42.110Z,65.80
2023-04-02T14:51:27.385Z,66.40
2023-04-02T14:53:58.206Z,64.50
2023-04-02T14:56:25.773Z,63.50
2023-04-02T14:59:21.473Z,64.10
2023-04-02T15:01:52.419Z,64.60
2023-04-02T15:04:34.792Z,65.00
2023-04-02T15:07:25.605Z,66.00
2023-04-02T15:10:13.171Z,65.60
2023-04-02T15:12:42.707Z,66.30
2023-04-02T15:15:26.823Z,67.00
2023-04-02T15:18:01.779Z,65.50
2023-04-02T15:20:39.653Z,65.80
2023-04-02T15:23:14.246Z,65.40
2023-04-02T15:25:55.463Z,65.00
2023-04-02T15:28:26.573Z,65.20
2023-04-02T15:30:59.738Z,65.20
2023-04-02T15:33:45.650Z,65.20
2023-04-02T15:36:57.623Z,66.20
2023-04-02T15:39:47.169Z,66.10
2023-04-02T15:42:16.835Z,65.50
2023-04-02T15:44:53.086Z,65.40
2023-04-02T15:47:50.685Z,65.90
2023-04-02T15:51:07.841Z,66.70
2023-04-02T15:53:43.655Z,65.70
2023-04-02T15:56:23.924Z,65.20
2023-04-02T15:59:10.410Z,65.30
2023-04-02T16:01:59.266Z,65.30
2023-04-02T16:04:48.102Z,65.90
2023-04-02T16:07:23.939Z,65.90
2023-04-02T16:10:12.718Z,66.20
2023-04-02T16:12:40.997Z,65.70
2023-04-02T16:15:27.159Z,66.30
2023-04-02T16:18:18.182Z,66.00
2023-04-02T16:20:48.741Z,65.40
2023-04-02T16:23:20.628Z,64.90
2023-04-02T16:26:21.999Z,65.30
2023-04-02T16:29:02.776Z,65.20
2023-04-02T16:31:46.332Z,66.00
2023-04-02T16:34:42.370Z,66.70
2023-04-02T16:37:28.010Z,66.50
2023-04-02T16:40:08.209Z,66.40
2023-04-02T16:43:13.328Z,65.30
2023-04-02T16:45:56.074Z,65.20
2023-04-02T16:48:44.364Z,65.20
2023-04-02T16:51:45.829Z,65.00
2023-04-02T16:54:22.262Z,65.00
2023-04-02T16:57:20.472Z,65.80
2023-04-02T17:00:02.672Z,65.80
2023-04-02T17:02:50.384Z,66.10
2023-04-02T17:05:45.435Z,65.90
2023-04-02T17:08:20.067Z,66.30
2023-04-02T17:11:02.100Z,66.00
2023-04-02T17:13:50.474Z,66.30
2023-04-02T17:16:21.890Z,66.30
2023-04-02T17:18:54.945Z,66.30
2023-04-02T17:21:27.278Z,66.50
2023-04-02T17:24:23.708Z,66.00
2023-04-02T17:26:56.033Z,66.40
2023-04-02T17:29:35.254Z,66.00
2023-04-02T17:32:03.539Z,66.40
2023-04-02T17:34:30.614Z,66.30
2023-04-02T17:37:03.858Z,66.40
2023-04-02T17:39:35.677Z,66.10
2023-04-02T17:42:26.452Z,66.80
2023-04-02T17:45:23.816Z,67.00
2023-04-02T17:48:14.506Z,67.00
2023-04-02T17:51:00.449Z,67.30
2023-04-02T17:53:27.417Z,67.10
2023-04-02T17:55:54.194Z,67.50
2023-04-02T17:58:20.978Z,67.40
2023-04-02T18:01:09.607Z,67.20
2023-04-02T18:04:03.595Z,67.90
2023-04-02T18:07:03.899Z,68.50
2023-04-02T18:09:46.771Z,68.50
2023-04-02T18:12:22.595Z,68.60
2023-04-02T18:15:19.652Z,69.80
2023-04-02T18:17:52.263Z,70.40
2023-04-02T18:20:37.782Z,71.00
2023-04-02T18:23:21.195Z,71.60
2023-04-02T18:25:56.914Z,72.70
2023-04-02T18:28:48.119Z,72.90
2023-04-02T18:31:26.913Z,73.60
2023-04-02T18:34:15.570Z,74.20
2023-04-02T18:37:04.235Z,74.70
2023-04-02T18:40:06.177Z,74.40
2023-04-02T18:42:58.837Z,74.60
2023-04-02T18:45:28.503Z,75.20
2023-04-02T18:48:28.467Z,75.90
2023-04-02T18:50:55.549Z,76.30
2023-04-02T18:53:25.047Z,76.40
2023-04-02T18:55:56.292Z,77.20
2023-04-02T18:58:35.806Z,77.40
2023-04-02T19:01:06.501Z,77.70
2023-04-02T19:03:41.117Z,77.50
2023-04-02T19:06:11.886Z,77.90
2023-04-02T19:09:02.197Z,78.30
2023-04-02T19:11:29.784Z,78.70
2023-04-02T19:14:20.496Z,78.90
2023-04-02T19:17:11.937Z,78.90
2023-04-02T19:20:12.941Z,78.70
2023-04-02T19:23:03.744Z,78.70
2023-04-02T19:25:58.547Z,78.40
2023-04-02T19:28:46.592Z,78.30
2023-04-02T19:31:28.905Z,78.20
2023-04-02T19:34:14.745Z,78.40
2023-04-02T19:37:14.082Z,78.50
2023-04-02T19:40:19.430Z,78.80
2023-04-02T19:42:48.461Z,79.10
2023-04-02T19:45:46.892Z,79.50
2023-04-02T19:48:24.088Z,79.90
2023-04-02T19:50:51.006Z,80.20
2023-04-02T19:53:18.413Z,80.40
2023-04-02T19:55:46.129Z,80.80
2023-04-02T19:58:36.116Z,81.10
2023-04-02T20:01:03.562Z,81.20
2023-04-02T20:03:31.470Z,81.20
2023-04-02T20:05:59.743Z,81.20
2023-04-02T20:08:27.809Z,81.20
2023-04-02T20:10:56.108Z,81.20
2023-04-02T20:13:22.909Z,81.20
2023-04-02T20:15:51.388Z,81.40
2023-04-02T20:18:18.786Z,81.80
2023-04-02T20:20:46.990Z,82.00
2023-04-02T20:23:14.620Z,82.10
2023-04-02T20:25:53.119Z,82.20
2023-04-02T20:28:24.621Z,82.40
2023-04-02T20:30:52.256Z,82.60
2023-04-02T20:33:21.551Z,82.60
2023-04-02T20:35:49.893Z,82.60
2023-04-02T20:38:17.394Z,82.90
2023-04-02T20:40:44.989Z,82.90
2023-04-02T20:43:12.453Z,82.80
2023-04-02T20:45:39.260Z,82.80
2023-04-02T20:48:07.218Z,82.70
2023-04-02T20:50:34.373Z,82.70
2023-04-02T20:53:01.651Z,82.80
2023-04-02T20:55:28.497Z,82.70
2023-04-02T20:57:55.813Z,82.70
2023-04-02T21:00:23.061Z,82.70
2023-04-02T21:02:49.946Z,82.70
2023-04-02T21:05:16.849Z,82.90
2023-04-02T21:07:43.678Z,83.10
2023-04-02T21:10:10.964Z,83.20
2023-04-02T21:12:37.839Z,83.30
2023-04-02T21:15:05.021Z,83.70
2023-04-02T21:17:31.928Z,83.50
2023-04-02T21:19:58.741Z,83.70
2023-04-02T21:22:25.888Z,83.70
2023-04-02T21:24:52.943Z,83.70
2023-04-02T21:27:19.748Z,83.90
2023-04-02T21:29:46.565Z,84.00
2023-04-02T21:32:21.350Z,84.20
2023-04-02T21:34:48.917Z,84.30
2023-04-02T21:37:15.773Z,84.10
2023-04-02T21:39:42.774Z,84.10
2023-04-02T21:42:11.158Z,84.00
2023-04-02T21:44:37.986Z,84.00
2023-04-02T21:47:04.916Z,83.70
2023-04-02T21:49:31.772Z,83.90
2023-04-02T21:51:59.504Z,84.10
2023-04-02T21:54:26.355Z,83.90
2023-04-02T21:56:53.440Z,83.80
2023-04-02T21:59:20.527Z,83.80
2023-04-02T22:01:52.056Z,83.90
2023-04-02T22:04:26.582Z,83.80
2023-04-02T22:06:54.146Z,83.90
2023-04-02T22:09:26.194Z,84.00
2023-04-02T22:11:59.153Z,84.10
2023-04-02T22:14:27.476Z,84.00
2023-04-02T22:16:54.865Z,84.00
2023-04-02T22:19:21.944Z,84.10
2023-04-02T22:21:48.846Z,84.10
2023-04-02T22:24:24.981Z,84.10
2023-04-02T22:26:51.955Z,84.00
2023-04-02T22:29:18.975Z,84.10
2023-04-02T22:31:45.921Z,84.10
2023-04-02T22:34:12.781Z,84.40
2023-04-02T22:36:39.631Z,84.30
2023-04-02T22:39:09.788Z,84.40
2023-04-02T22:41:36.687Z,84.30
2023-04-02T22:44:03.667Z,84.40
2023-04-02T22:46:31.427Z,84.40
2023-04-02T22:48:58.764Z,84.20
2023-04-02T22:51:27.696Z,84.30
2023-04-02T22:53:55.953Z,84.30
2023-04-02T22:56:29.712Z,84.30
2023-04-02T22:58:56.553Z,84.10
2023-04-02T23:01:34.766Z,84.00
2023-04-02T23:04:01.746Z,83.80
2023-04-02T23:06:29.001Z,83.70
2023-04-02T23:08:55.998Z,83.70
2023-04-02T23:11:26.008Z,83.70
2023-04-02T23:13:54.651Z,84.00
2023-04-02T23:16:22.826Z,84.20
2023-04-02T23:18:50.696Z,84.20
2023-04-02T23:21:19.036Z,84.50
2023-04-02T23:23:47.214Z,84.70
2023-04-02T23:26:21.724Z,85.10
2023-04-02T23:28:49.663Z,85.20
2023-04-02T23:31:18.882Z,85.40
2023-04-02T23:33:45.960Z,85.50
2023-04-02T23:36:31.556Z,85.70
2023-04-02T23:39:01.574Z,85.90
2023-04-02T23:41:29.777Z,86.00
2023-04-02T23:43:57.818Z,86.10
2023-04-02T23:46:25.153Z,86.20
2023-04-02T23:48:53.081Z,86.40
2023-04-02T23:51:20.571Z,86.60
2023-04-02T23:53:48.296Z,86.80
2023-04-02T23:56:15.423Z,86.60
2023-04-02T23:58:42.366Z,86.70
